Time;durP1;ratioP1;P1;durP2;ratioP2;P2;SDS_P1;SDS_P2;PMS_P1;PMS_P2;Temp;Humidity;BMP_temperature;BMP_pressure;BME280_temperature;BME280_humidity;BME280_pressure;Samples;Min_cycle;Max_cycle;Signal;HPM_P1;HPM_P2
2021/04/03 00:00:16;;;;;;;9.27;2.73;;;4.70;99.90;;;;;;5012981;28;20949;-65
2021/04/03 00:02:41;;;;;;;11.30;4.20;;;4.60;99.90;;;;;;5013887;28;20176;-65
2021/04/03 00:05:10;;;;;;;13.13;3.57;;;4.60;99.90;;;;;;5013542;28;20187;-65
2021/04/03 00:07:36;;;;;;;16.25;3.53;;;4.50;99.90;;;;;;5013871;28;20294;-64
2021/04/03 00:10:09;;;;;;;9.55;3.78;;;4.60;99.90;;;;;;5014043;28;20497;-64
2021/04/03 00:12:35;;;;;;;13.95;3.88;;;4.60;99.90;;;;;;5013824;28;20188;-64
2021/04/03 00:15:01;;;;;;;12.83;3.97;;;4.50;99.90;;;;;;5013575;28;20225;-64
2021/04/03 00:17:26;;;;;;;15.53;3.60;;;4.50;99.90;;;;;;5013853;28;20180;-64
2021/04/03 00:19:54;;;;;;;14.70;3.40;;;4.40;99.90;;;;;;5013811;28;20438;-64
2021/04/03 00:22:21;;;;;;;18.67;2.97;;;4.50;99.90;;;;;;5013811;28;20175;-64
2021/04/03 00:24:47;;;;;;;12.43;2.78;;;4.50;99.90;;;;;;5013405;28;20200;-64
2021/04/03 00:27:13;;;;;;;12.07;2.87;;;4.40;99.90;;;;;;5013647;28;20235;-64
2021/04/03 00:29:38;;;;;;;19.87;4.00;;;4.40;99.90;;;;;;5014034;28;20185;-64
2021/04/03 00:32:04;;;;;;;15.60;3.97;;;4.40;99.90;;;;;;5015264;28;20186;-64
2021/04/03 00:34:29;;;;;;;14.17;3.50;;;4.50;99.90;;;;;;5017429;28;20172;-65
2021/04/03 00:36:55;;;;;;;15.97;3.80;;;4.40;99.90;;;;;;5017702;28;20179;-64
2021/04/03 00:39:20;;;;;;;26.77;5.00;;;4.40;99.90;;;;;;5017470;28;20210;-65
2021/04/03 00:41:46;;;;;;;9.07;4.20;;;4.40;99.90;;;;;;5016748;28;20198;-65
2021/04/03 00:44:13;;;;;;;8.10;3.10;;;4.30;99.90;;;;;;5016182;28;20191;-65
2021/04/03 00:46:39;;;;;;;13.82;5.28;;;4.30;99.90;;;;;;5016312;28;20180;-65
2021/04/03 00:49:06;;;;;;;14.63;3.00;;;4.40;99.90;;;;;;5017185;28;20663;-65
2021/04/03 00:51:32;;;;;;;13.13;4.00;;;4.30;99.90;;;;;;5017265;28;20520;-65
2021/04/03 00:53:57;;;;;;;10.00;3.40;;;4.40;99.90;;;;;;5017050;28;20254;-66
2021/04/03 00:56:23;;;;;;;13.90;3.57;;;4.30;99.90;;;;;;5017149;28;20785;-66
2021/04/03 00:58:48;;;;;;;13.73;4.13;;;4.40;99.90;;;;;;5017176;28;20192;-67
2021/04/03 01:01:14;;;;;;;23.27;5.20;;;4.30;99.90;;;;;;5016993;28;20615;-66
2021/04/03 01:03:40;;;;;;;18.10;3.40;;;4.30;99.90;;;;;;5017107;28;20203;-67
2021/04/03 01:06:06;;;;;;;14.68;4.32;;;4.30;99.90;;;;;;5017009;28;20504;-66
2021/04/03 01:08:32;;;;;;;19.83;4.30;;;4.30;99.90;;;;;;5016965;28;20203;-66
2021/04/03 01:10:57;;;;;;;14.57;4.50;;;4.20;99.90;;;;;;5017039;28;20186;-66
2021/04/03 01:13:54;;;;;;;21.67;4.20;;;4.20;99.90;;;;;;5016577;28;20179;-67
2021/04/03 01:17:10;;;;;;;17.10;4.63;;;4.30;99.90;;;;;;5016641;28;20179;-66
2021/04/03 01:19:48;;;;;;;18.15;3.05;;;4.30;99.90;;;;;;4994377;28;20223;-66
2021/04/03 01:22:37;;;;;;;18.40;4.88;;;4.20;99.90;;;;;;5016705;28;20180;-65
2021/04/03 01:25:44;;;;;;;15.25;4.10;;;4.20;99.90;;;;;;5016702;28;20180;-65
2021/04/03 01:28:34;;;;;;;11.70;4.18;;;4.20;99.90;;;;;;5015770;28;20256;-65
2021/04/03 01:31:00;;;;;;;16.55;4.55;;;4.20;99.90;;;;;;5016679;28;20513;-65
2021/04/03 01:33:29;;;;;;;14.53;3.30;;;4.20;99.90;;;;;;5016305;28;20173;-65
2021/04/03 01:36:03;;;;;;;20.58;5.03;;;4.10;99.90;;;;;;5016412;28;20436;-65
2021/04/03 01:38:36;;;;;;;19.15;3.53;;;4.00;99.90;;;;;;5016339;28;20264;-65
2021/04/03 01:41:03;;;;;;;22.38;4.35;;;4.00;99.90;;;;;;5016254;28;20190;-65
2021/04/03 01:43:34;;;;;;;21.08;4.47;;;4.10;99.90;;;;;;5015599;28;20197;-65
2021/04/03 01:46:01;;;;;;;17.00;4.03;;;4.10;99.90;;;;;;5016217;28;20183;-65
2021/04/03 01:48:28;;;;;;;16.48;4.30;;;4.00;99.90;;;;;;5016340;28;20210;-65
2021/04/03 01:50:54;;;;;;;18.30;3.83;;;3.90;99.90;;;;;;5016155;28;20175;-65
2021/04/03 01:53:21;;;;;;;17.10;4.07;;;3.90;99.90;;;;;;5016046;28;20259;-65
2021/04/03 01:55:47;;;;;;;11.13;3.80;;;4.00;99.90;;;;;;5016242;28;20264;-65
2021/04/03 01:58:13;;;;;;;13.18;3.80;;;4.00;99.90;;;;;;5016119;28;20261;-65
2021/04/03 02:00:41;;;;;;;14.17;4.10;;;3.80;99.90;;;;;;5016001;28;20267;-65
2021/04/03 02:03:08;;;;;;;7.57;3.10;;;3.80;99.90;;;;;;5015769;28;20907;-65
2021/04/03 02:05:36;;;;;;;10.25;4.70;;;3.80;99.90;;;;;;5015990;28;20247;-65
2021/04/03 02:08:03;;;;;;;10.35;4.30;;;3.90;99.90;;;;;;5015746;28;20213;-65
2021/04/03 02:10:31;;;;;;;14.65;4.38;;;3.90;99.90;;;;;;5015953;28;20188;-66
2021/04/03 02:12:59;;;;;;;11.45;3.60;;;3.90;99.90;;;;;;5015738;28;20178;-65
2021/04/03 02:15:26;;;;;;;19.60;5.53;;;3.90;99.90;;;;;;5015440;28;20184;-65
2021/04/03 02:17:56;;;;;;;10.32;3.30;;;3.80;99.90;;;;;;5015611;28;20184;-65
2021/04/03 02:20:22;;;;;;;14.73;4.07;;;3.70;99.90;;;;;;5015627;28;20180;-65
2021/04/03 02:22:48;;;;;;;15.23;4.32;;;3.80;99.90;;;;;;5015683;28;20489;-64
2021/04/03 02:25:16;;;;;;;15.95;3.47;;;3.70;99.90;;;;;;5015354;28;20187;-63
2021/04/03 02:27:42;;;;;;;21.67;4.30;;;3.60;99.90;;;;;;5015405;28;20523;-64
2021/04/03 02:30:23;;;;;;;16.85;4.07;;;3.70;99.90;;;;;;5015520;28;20187;-64
2021/04/03 02:32:54;;;;;;;21.25;4.25;;;3.70;99.90;;;;;;5015507;28;20219;-64
2021/04/03 02:35:21;;;;;;;9.57;4.20;;;3.60;99.90;;;;;;5015251;28;20176;-64
2021/04/03 02:37:48;;;;;;;15.07;3.97;;;3.60;99.90;;;;;;5015270;28;20188;-64
2021/04/03 02:40:17;;;;;;;15.57;4.40;;;3.60;99.90;;;;;;5015206;28;20185;-64
2021/04/03 02:42:56;;;;;;;15.63;5.07;;;3.70;99.90;;;;;;5015280;28;20182;-64
2021/04/03 02:45:24;;;;;;;18.95;4.50;;;3.80;99.90;;;;;;5015582;28;20279;-65
2021/04/03 02:47:54;;;;;;;13.23;5.60;;;3.60;99.90;;;;;;5015201;28;20211;-65
2021/04/03 02:50:36;;;;;;;11.07;3.22;;;3.60;99.90;;;;;;5015182;28;20180;-65
2021/04/03 02:53:03;;;;;;;15.68;4.20;;;3.60;99.90;;;;;;5015032;28;20633;-65
2021/04/03 02:55:31;;;;;;;22.20;5.25;;;3.60;99.90;;;;;;5014212;28;20571;-65
2021/04/03 02:57:59;;;;;;;7.65;2.45;;;3.70;99.90;;;;;;5014973;28;20496;-65
2021/04/03 03:00:26;;;;;;;12.40;4.45;;;3.50;99.90;;;;;;5014880;28;20192;-65
2021/04/03 03:02:52;;;;;;;15.38;5.38;;;3.40;99.90;;;;;;5015017;28;20188;-65
2021/04/03 03:05:18;;;;;;;17.25;4.30;;;3.50;99.90;;;;;;5014583;28;20190;-65
2021/04/03 03:07:46;;;;;;;15.77;4.47;;;3.50;99.90;;;;;;5014822;28;20198;-65
2021/04/03 03:10:16;;;;;;;8.23;3.90;;;3.50;99.90;;;;;;5014822;28;20539;-66
2021/04/03 03:12:44;;;;;;;27.77;5.80;;;3.40;99.90;;;;;;5014782;28;20566;-65
2021/04/03 03:15:12;;;;;;;25.83;5.30;;;3.40;99.90;;;;;;5014457;28;20170;-65
2021/04/03 03:17:38;;;;;;;16.58;5.43;;;3.50;99.90;;;;;;5013400;28;20199;-65
2021/04/03 03:20:06;;;;;;;18.25;5.25;;;3.50;99.90;;;;;;5014597;28;20194;-65
2021/04/03 03:22:32;;;;;;;9.25;4.35;;;3.40;99.90;;;;;;5014563;28;20187;-65
2021/04/03 03:24:58;;;;;;;11.00;3.93;;;3.40;99.90;;;;;;5014245;28;20177;-65
2021/04/03 03:27:25;;;;;;;12.98;4.38;;;3.40;99.90;;;;;;5014455;28;20204;-65
2021/04/03 03:29:51;;;;;;;9.60;3.55;;;3.40;99.90;;;;;;5014493;28;20262;-65
2021/04/03 03:32:16;;;;;;;16.23;4.50;;;3.40;99.90;;;;;;5014465;28;20277;-65
2021/04/03 03:34:42;;;;;;;16.13;4.40;;;3.40;99.90;;;;;;5014135;28;20232;-65
2021/04/03 03:37:09;;;;;;;11.83;3.63;;;3.40;99.90;;;;;;5014380;28;20179;-66
2021/04/03 03:39:34;;;;;;;16.58;4.50;;;3.30;99.90;;;;;;5014579;28;20271;-65
2021/04/03 03:42:01;;;;;;;9.03;4.20;;;3.30;99.90;;;;;;5014387;28;20620;-65
2021/04/03 03:44:28;;;;;;;15.77;5.43;;;3.30;99.90;;;;;;5013799;28;20246;-64
2021/04/03 03:46:53;;;;;;;16.20;4.72;;;3.40;99.90;;;;;;5013948;28;20190;-64
2021/04/03 03:49:19;;;;;;;9.27;4.10;;;3.40;99.90;;;;;;5014103;28;20183;-64
2021/04/03 03:51:45;;;;;;;12.23;4.40;;;3.50;99.90;;;;;;5013962;28;20179;-64
2021/04/03 03:54:10;;;;;;;14.23;5.60;;;3.60;99.90;;;;;;5013724;28;20234;-64
2021/04/03 03:56:36;;;;;;;12.23;5.00;;;3.60;99.90;;;;;;5014043;28;20473;-66
2021/04/03 03:59:02;;;;;;;14.17;4.27;;;3.50;99.90;;;;;;5013955;28;20184;-65
2021/04/03 04:01:27;;;;;;;19.50;5.63;;;3.50;99.90;;;;;;5013995;28;20210;-65
2021/04/03 04:03:53;;;;;;;15.27;6.03;;;3.60;99.90;;;;;;5013617;28;20509;-65
2021/04/03 04:06:18;;;;;;;16.93;4.90;;;3.50;99.90;;;;;;5013525;28;20190;-65
2021/04/03 04:08:44;;;;;;;8.63;4.23;;;3.60;99.90;;;;;;5013876;28;20207;-65
2021/04/03 04:11:12;;;;;;;13.80;5.05;;;3.60;99.90;;;;;;5013797;28;20679;-65
2021/04/03 04:13:38;;;;;;;13.20;4.40;;;3.50;99.90;;;;;;5013554;28;20653;-65
2021/04/03 04:16:04;;;;;;;10.90;4.60;;;3.40;99.90;;;;;;5013935;28;20179;-65
2021/04/03 04:18:31;;;;;;;8.30;4.43;;;3.40;99.90;;;;;;5013907;28;20180;-66
2021/04/03 04:20:57;;;;;;;16.35;4.85;;;3.40;99.90;;;;;;5014170;28;20646;-66
2021/04/03 04:23:22;;;;;;;8.77;3.60;;;3.50;99.90;;;;;;5013568;28;20190;-66
2021/04/03 04:25:48;;;;;;;8.23;4.13;;;3.50;99.90;;;;;;5013802;28;20180;-66
2021/04/03 04:28:13;;;;;;;11.63;4.13;;;3.40;99.90;;;;;;5012802;28;20206;-66
2021/04/03 04:30:39;;;;;;;16.67;4.63;;;3.50;99.90;;;;;;5013826;28;20186;-66
2021/04/03 04:33:05;;;;;;;7.87;3.90;;;3.50;99.90;;;;;;5013627;28;20273;-66
2021/04/03 04:35:30;;;;;;;7.87;3.90;;;3.60;99.90;;;;;;5013538;28;20238;-66
2021/04/03 04:37:56;;;;;;;10.90;4.83;;;3.60;99.90;;;;;;5013563;28;20264;-66
2021/04/03 04:40:22;;;;;;;12.70;4.53;;;3.70;99.90;;;;;;5013750;28;20305;-66
2021/04/03 04:42:50;;;;;;;10.30;4.83;;;3.70;99.90;;;;;;5013519;28;20216;-66
2021/04/03 04:45:15;;;;;;;13.23;5.25;;;3.60;99.90;;;;;;5012468;28;20273;-67
2021/04/03 04:47:41;;;;;;;6.83;4.20;;;3.60;99.90;;;;;;5013389;28;20293;-67
2021/04/03 04:50:08;;;;;;;18.03;4.87;;;3.60;99.90;;;;;;5013541;28;20191;-67
2021/04/03 04:52:34;;;;;;;9.27;4.35;;;3.60;99.90;;;;;;5013480;28;20183;-67
2021/04/03 04:55:01;;;;;;;14.43;3.97;;;3.50;99.90;;;;;;5012267;28;20180;-67
2021/04/03 04:57:26;;;;;;;9.23;3.78;;;3.50;99.90;;;;;;5013476;28;20436;-67
2021/04/03 04:59:53;;;;;;;8.70;3.70;;;3.50;99.90;;;;;;5013494;28;20182;-66
2021/04/03 05:02:19;;;;;;;13.32;4.47;;;3.60;99.90;;;;;;5013342;28;20188;-65
2021/04/03 05:04:44;;;;;;;5.80;3.73;;;3.60;99.90;;;;;;5012132;28;20298;-65
2021/04/03 05:07:10;;;;;;;9.87;3.57;;;3.60;99.90;;;;;;5013320;28;20190;-66
2021/04/03 05:09:35;;;;;;;9.17;3.23;;;3.60;99.90;;;;;;5013286;28;20186;-66
2021/04/03 05:12:01;;;;;;;11.87;4.10;;;3.70;99.90;;;;;;5013221;28;20181;-66
2021/04/03 05:14:29;;;;;;;9.17;3.37;;;3.90;99.90;;;;;;5013109;28;20244;-65
2021/04/03 05:16:54;;;;;;;10.40;5.05;;;4.20;81.90;;;;;;5013139;28;20180;-65
2021/04/03 05:19:20;;;;;;;17.03;4.80;;;4.40;12.60;;;;;;5016631;28;20331;-65
2021/04/03 05:21:45;;;;;;;10.00;6.30;;;4.50;1.00;;;;;;5016844;28;20527;-65
2021/04/03 05:24:11;;;;;;;7.27;4.70;;;5.10;1.00;;;;;;5016363;28;20185;-65
2021/04/03 05:26:37;;;;;;;10.83;4.90;;;5.70;1.00;;;;;;5016569;28;20197;-67
2021/04/03 05:29:03;;;;;;;6.90;3.70;;;6.20;99.90;;;;;;5016697;28;20307;-66
2021/04/03 05:31:28;;;;;;;8.63;4.85;;;6.70;99.90;;;;;;5016457;28;20195;-66
2021/04/03 05:33:54;;;;;;;13.57;3.80;;;7.10;99.90;;;;;;5016294;28;20192;-66
2021/04/03 05:36:19;;;;;;;12.93;4.10;;;6.70;99.90;;;;;;5016447;28;20182;-65
2021/04/03 05:38:45;;;;;;;11.13;3.87;;;6.30;99.90;;;;;;5016328;28;20214;-65
2021/04/03 05:41:10;;;;;;;6.47;3.20;;;6.80;1.00;;;;;;5016248;28;20269;-65
2021/04/03 05:43:38;;;;;;;8.50;3.33;;;7.20;99.90;;;;;;5015033;28;20702;-66
2021/04/03 05:46:04;;;;;;;8.02;3.75;;;8.00;1.00;;;;;;5016201;28;20178;-66
2021/04/03 05:48:30;;;;;;;6.43;3.00;;;8.40;99.90;;;;;;5015949;28;20213;-67
2021/04/03 05:50:59;;;;;;;12.75;3.28;;;8.40;99.90;;;;;;5016229;28;20484;-66
2021/04/03 05:53:24;;;;;;;7.93;3.58;;;7.90;1.00;;;;;;5015851;28;20210;-66
2021/04/03 05:55:57;;;;;;;7.73;3.80;;;7.70;99.90;;;;;;5015980;28;20224;-66
2021/04/03 05:58:23;;;;;;;6.80;3.30;;;7.90;1.00;;;;;;5016263;28;20272;-66
2021/04/03 06:00:52;;;;;;;8.47;4.33;;;7.90;99.90;;;;;;5015981;28;20269;-66
2021/04/03 06:03:17;;;;;;;12.77;4.82;;;8.40;1.00;;;;;;5014935;28;20273;-66
2021/04/03 06:05:44;;;;;;;11.33;3.30;;;8.30;99.90;;;;;;5016046;28;20213;-66
2021/04/03 06:08:10;;;;;;;8.48;3.42;;;8.20;1.00;;;;;;5015910;28;20206;-66
2021/04/03 06:10:36;;;;;;;10.35;4.35;;;8.60;99.90;;;;;;5015811;28;20185;-67
2021/04/03 06:13:02;;;;;;;6.43;4.03;;;9.20;1.00;;;;;;5015829;28;20181;-67
2021/04/03 06:15:27;;;;;;;10.10;3.30;;;9.10;1.00;;;;;;5015494;28;20190;-67
2021/04/03 06:18:01;;;;;;;5.43;2.97;;;9.90;1.00;;;;;;5014622;28;20952;-67
2021/04/03 06:20:41;;;;;;;9.35;4.00;;;10.10;1.00;;;;;;5015602;28;20235;-67
2021/04/03 06:23:08;;;;;;;8.38;3.30;;;10.20;99.90;;;;;;5015311;28;20607;-68
2021/04/03 06:25:53;;;;;;;5.95;2.95;;;10.60;99.90;;;;;;5015685;28;20192;-68
2021/04/03 06:28:26;;;;;;;5.63;2.97;;;11.40;99.90;;;;;;5015398;28;20251;-67
2021/04/03 06:31:11;;;;;;;8.85;4.03;;;10.40;99.90;;;;;;5015675;28;20182;-67
2021/04/03 06:33:37;;;;;;;5.32;3.20;;;10.00;99.90;;;;;;5015274;28;20223;-67
2021/04/03 06:36:10;;;;;;;14.33;4.03;;;9.10;1.00;;;;;;5015466;28;20265;-67
2021/04/03 06:38:37;;;;;;;10.80;3.30;;;9.30;1.00;;;;;;5015286;28;20186;-67
2021/04/03 06:41:17;;;;;;;12.32;3.72;;;9.80;99.90;;;;;;5015462;28;20787;-67
2021/04/03 06:43:42;;;;;;;6.88;3.90;;;9.70;1.00;;;;;;5014240;28;20490;-67
2021/04/03 06:46:24;;;;;;;7.67;3.80;;;9.80;1.00;;;;;;5014173;28;20185;-67
2021/04/03 06:48:52;;;;;;;8.25;3.60;;;9.70;1.00;;;;;;5014957;28;20240;-67
2021/04/03 06:51:21;;;;;;;6.55;3.95;;;9.80;1.00;;;;;;5015201;28;20273;-67
2021/04/03 06:53:48;;;;;;;7.05;3.65;;;9.60;1.00;;;;;;5013782;28;20193;-67
2021/04/03 06:56:16;;;;;;;9.10;3.78;;;9.60;1.00;;;;;;5014966;28;20174;-67
2021/04/03 06:58:45;;;;;;;10.38;4.40;;;8.90;1.00;;;;;;5013890;28;20194;-67
2021/04/03 07:01:14;;;;;;;6.80;4.18;;;8.40;99.90;;;;;;5014826;28;20535;-67
2021/04/03 07:03:43;;;;;;;8.88;4.43;;;7.90;1.00;;;;;;5013521;28;20194;-67
2021/04/03 07:06:11;;;;;;;8.00;3.63;;;7.20;25.70;;;;;;5015045;28;20179;-68
2021/04/03 07:08:37;;;;;;;6.68;3.65;;;7.30;1.00;;;;;;5014612;28;20242;-67
2021/04/03 07:11:06;;;;;;;8.63;3.92;;;7.30;1.00;;;;;;5014796;28;20623;-66
2021/04/03 07:13:33;;;;;;;9.40;3.83;;;7.40;1.00;;;;;;5014437;28;20186;-67
2021/04/03 07:16:01;;;;;;;6.07;3.15;;;7.70;1.00;;;;;;5014614;28;20630;-66
2021/04/03 07:18:28;;;;;;;5.63;3.20;;;8.10;99.90;;;;;;5014618;28;20204;-66
2021/04/03 07:20:54;;;;;;;6.05;3.22;;;7.60;1.00;;;;;;5014611;28;20185;-67
2021/04/03 07:23:20;;;;;;;7.27;3.90;;;7.30;99.90;;;;;;5014324;28;20636;-67
2021/04/03 07:25:47;;;;;;;5.00;2.83;;;7.30;1.00;;;;;;5013539;28;20439;-67
2021/04/03 07:28:16;;;;;;;7.40;3.88;;;7.20;1.00;;;;;;5014302;28;20560;-67
2021/04/03 07:30:44;;;;;;;9.55;4.20;;;7.30;64.60;;;;;;5014587;28;20192;-67
2021/04/03 07:33:14;;;;;;;5.30;3.17;;;7.10;99.90;;;;;;5014274;28;20178;-67
2021/04/03 07:35:50;;;;;;;5.07;3.25;;;7.10;99.90;;;;;;5014272;28;20209;-67
2021/04/03 07:38:36;;;;;;;7.07;3.42;;;6.90;77.80;;;;;;5014189;28;20280;-67
2021/04/03 07:41:20;;;;;;;6.10;3.30;;;7.00;52.00;;;;;;5013895;28;20217;-67
2021/04/03 07:43:48;;;;;;;4.82;3.13;;;7.20;1.00;;;;;;5013111;28;20198;-67
2021/04/03 07:46:19;;;;;;;6.60;3.63;;;7.30;1.00;;;;;;5013253;28;20280;-66
2021/04/03 07:48:49;;;;;;;4.72;2.28;;;7.40;1.00;;;;;;5014064;28;20202;-67
2021/04/03 07:51:35;;;;;;;8.55;3.20;;;7.30;99.90;;;;;;5014082;28;20185;-67
2021/04/03 07:54:03;;;;;;;5.80;3.53;;;7.30;48.30;;;;;;5007228;28;20253;-67
2021/04/03 07:56:51;;;;;;;7.85;3.78;;;7.50;99.90;;;;;;5014956;28;20175;-67
2021/04/03 07:59:17;;;;;;;6.47;3.30;;;7.40;99.90;;;;;;5008192;28;20202;-67
2021/04/03 08:01:47;;;;;;;4.72;2.70;;;7.70;99.90;;;;;;5013647;28;20298;-68
2021/04/03 08:04:13;;;;;;;5.80;3.10;;;8.00;1.00;;;;;;5012752;28;20627;-67
2021/04/03 08:06:41;;;;;;;3.80;2.60;;;7.90;1.00;;;;;;5008887;28;20190;-67
2021/04/03 08:09:16;;;;;;;6.38;3.00;;;7.60;1.00;;;;;;5023508;28;20225;-66
2021/04/03 08:11:45;;;;;;;5.07;2.20;;;7.80;1.00;;;;;;5025398;28;20212;-67
2021/04/03 08:14:12;;;;;;;2.58;1.70;;;7.90;99.90;;;;;;5033734;28;20196;-66
2021/04/03 08:16:39;;;;;;;7.13;2.15;;;7.60;99.90;;;;;;5034212;28;20208;-66
2021/04/03 08:19:05;;;;;;;4.80;2.05;;;7.70;99.90;;;;;;5032882;28;20199;-66
2021/04/03 08:21:47;;;;;;;2.93;1.77;;;8.10;99.90;;;;;;5033948;28;20178;-67
2021/04/03 08:24:14;;;;;;;4.30;2.15;;;8.20;58.10;;;;;;5033892;28;20896;-67
2021/04/03 08:26:42;;;;;;;3.55;2.15;;;8.00;9.30;;;;;;5020078;28;20206;-66
2021/04/03 08:29:18;;;;;;;7.28;2.20;;;8.00;81.30;;;;;;5024686;28;20297;-66
2021/04/03 08:31:47;;;;;;;4.07;1.83;;;8.10;1.00;;;;;;5025595;28;20187;-66
2021/04/03 08:34:13;;;;;;;4.50;1.95;;;8.30;1.00;;;;;;5033386;28;20681;-66
2021/04/03 08:36:39;;;;;;;4.23;2.40;;;8.40;1.00;;;;;;5033656;28;20288;-66
2021/04/03 08:39:07;;;;;;;3.23;1.90;;;8.70;1.00;;;;;;5033381;28;20287;-66
2021/04/03 08:41:34;;;;;;;2.33;2.13;;;8.70;1.00;;;;;;5033511;28;20186;-67
2021/04/03 08:44:22;;;;;;;2.28;1.48;;;8.70;1.00;;;;;;5034653;28;20562;-67
2021/04/03 08:46:51;;;;;;;3.30;1.80;;;8.70;1.00;;;;;;5038242;28;20178;-67
2021/04/03 08:49:46;;;;;;;2.85;1.55;;;8.70;1.00;;;;;;5035064;28;20228;-67
2021/04/03 08:52:12;;;;;;;4.50;1.33;;;9.00;1.00;;;;;;5024680;28;20523;-67
2021/04/03 08:54:42;;;;;;;3.97;1.00;;;8.70;1.00;;;;;;5036803;28;20256;-67
2021/04/03 08:57:23;;;;;;;2.38;1.70;;;8.80;1.00;;;;;;5036124;28;20180;-67
2021/04/03 08:59:49;;;;;;;3.38;1.88;;;8.90;1.00;;;;;;5036836;28;20260;-67
2021/04/03 09:02:14;;;;;;;1.27;1.17;;;9.00;1.00;;;;;;5036856;28;20721;-67
2021/04/03 09:04:40;;;;;;;2.97;1.40;;;9.20;1.00;;;;;;5036830;28;20495;-67
2021/04/03 09:07:06;;;;;;;3.13;1.40;;;9.00;1.00;;;;;;5036904;28;20679;-67
2021/04/03 09:09:32;;;;;;;1.73;1.23;;;9.20;1.00;;;;;;5035947;28;20657;-67
2021/04/03 09:12:01;;;;;;;5.00;1.67;;;9.30;1.00;;;;;;5035736;28;20188;-67
2021/04/03 09:14:35;;;;;;;1.77;1.25;;;9.40;1.00;;;;;;5036444;28;20219;-68
2021/04/03 09:17:01;;;;;;;3.35;1.35;;;9.50;1.00;;;;;;5035468;28;20641;-67
2021/04/03 09:19:29;;;;;;;2.45;1.17;;;9.20;1.00;;;;;;5036396;28;20186;-67
2021/04/03 09:21:56;;;;;;;1.55;1.30;;;9.10;1.00;;;;;;5036534;28;20185;-65
2021/04/03 09:24:38;;;;;;;3.88;1.65;;;9.30;1.00;;;;;;5034922;28;20196;-65
2021/04/03 09:27:18;;;;;;;0.97;0.87;;;9.40;1.00;;;;;;5036330;28;20177;-65
2021/04/03 09:29:48;;;;;;;0.98;0.77;;;9.70;1.00;;;;;;5036254;28;20780;-64
2021/04/03 09:32:15;;;;;;;2.03;1.00;;;9.60;1.00;;;;;;5036258;28;20188;-65
2021/04/03 09:34:41;;;;;;;1.30;0.70;;;9.40;1.00;;;;;;5035954;28;20246;-65
2021/04/03 09:37:15;;;;;;;1.20;1.10;;;9.30;1.00;;;;;;5036286;28;20184;-65
2021/04/03 09:39:47;;;;;;;0.68;0.40;;;9.20;1.00;;;;;;5035796;28;20598;-65
2021/04/03 09:42:14;;;;;;;1.13;0.88;;;9.40;1.00;;;;;;5035000;28;20220;-65
2021/04/03 09:44:41;;;;;;;2.10;1.00;;;9.50;1.00;;;;;;5036116;28;20190;-66
2021/04/03 09:47:08;;;;;;;0.98;0.80;;;9.50;1.00;;;;;;5036705;28;20485;-65
2021/04/03 09:49:35;;;;;;;3.35;1.10;;;9.60;1.00;;;;;;5036042;28;20234;-66
2021/04/03 09:52:01;;;;;;;2.88;1.08;;;9.60;1.00;;;;;;5035628;28;20178;-64
2021/04/03 09:54:27;;;;;;;0.98;0.85;;;9.70;1.00;;;;;;5035239;28;20204;-63
2021/04/03 09:56:53;;;;;;;2.63;1.23;;;9.80;1.00;;;;;;5035803;28;20626;-64
2021/04/03 09:59:18;;;;;;;3.33;1.03;;;9.50;1.00;;;;;;5035380;28;20631;-64
2021/04/03 10:01:44;;;;;;;2.93;1.10;;;9.80;1.00;;;;;;5035567;28;20182;-64
2021/04/03 10:04:10;;;;;;;1.93;0.80;;;10.20;1.00;;;;;;5034119;28;20182;-64
2021/04/03 10:06:35;;;;;;;1.70;1.53;;;10.40;1.00;;;;;;5034409;28;20205;-64
2021/04/03 10:09:01;;;;;;;2.90;1.30;;;10.10;1.00;;;;;;5035537;28;20209;-65
2021/04/03 10:11:27;;;;;;;2.78;1.38;;;9.70;1.00;;;;;;5035527;28;20629;-64
2021/04/03 10:13:53;;;;;;;3.77;1.10;;;9.70;1.00;;;;;;5035183;28;20607;-66
2021/04/03 10:16:18;;;;;;;1.97;1.50;;;10.00;1.00;;;;;;5035814;28;20252;-66
2021/04/03 10:18:44;;;;;;;3.03;1.67;;;10.10;1.00;;;;;;5035388;28;20269;-65
2021/04/03 10:21:11;;;;;;;3.37;1.80;;;10.00;1.00;;;;;;5034690;28;20182;-64
2021/04/03 10:23:36;;;;;;;3.58;1.83;;;9.90;1.00;;;;;;5012098;28;20190;-60
2021/04/03 10:26:03;;;;;;;4.20;2.30;;;10.30;1.00;;;;;;5008776;28;20269;-61
2021/04/03 10:28:28;;;;;;;4.72;2.40;;;10.50;1.00;;;;;;5018200;28;20211;-60
2021/04/03 10:30:54;;;;;;;4.40;2.13;;;10.40;1.00;;;;;;5032472;28;20189;-60
2021/04/03 10:33:20;;;;;;;2.73;1.70;;;10.50;1.00;;;;;;5034607;28;20445;-60
2021/04/03 10:35:46;;;;;;;2.47;1.50;;;10.10;1.00;;;;;;5034436;28;20542;-60
2021/04/03 10:38:12;;;;;;;3.70;1.90;;;10.20;1.00;;;;;;5034262;28;20665;-60
2021/04/03 10:40:37;;;;;;;3.63;1.80;;;10.20;1.00;;;;;;5035254;28;20192;-60
2021/04/03 10:43:03;;;;;;;3.10;1.53;;;10.10;1.00;;;;;;5034710;28;20428;-60
2021/04/03 10:45:29;;;;;;;2.63;1.53;;;10.30;1.00;;;;;;5034468;28;20178;-59
2021/04/03 10:47:55;;;;;;;2.00;0.83;;;10.40;1.00;;;;;;5034776;28;20244;-59
2021/04/03 10:50:20;;;;;;;3.67;1.70;;;10.20;1.00;;;;;;5034714;28;20228;-59
2021/04/03 10:52:46;;;;;;;3.83;2.80;;;10.20;1.00;;;;;;5034783;28;20213;-59
2021/04/03 10:55:12;;;;;;;2.90;1.97;;;10.40;1.00;;;;;;5034515;28;20212;-60
2021/04/03 10:57:38;;;;;;;5.85;2.72;;;10.30;1.00;;;;;;5034661;28;20182;-60
2021/04/03 11:00:05;;;;;;;3.37;2.03;;;10.50;1.00;;;;;;5036185;28;20260;-60
2021/04/03 11:02:31;;;;;;;2.13;1.50;;;10.70;1.00;;;;;;5036354;28;20241;-60
2021/04/03 11:04:56;;;;;;;3.03;1.80;;;10.80;1.00;;;;;;5035303;28;20368;-60
2021/04/03 11:07:22;;;;;;;2.37;2.10;;;10.40;1.00;;;;;;5035926;28;20182;-60
2021/04/03 11:09:47;;;;;;;2.90;2.23;;;10.40;1.00;;;;;;5035861;28;20177;-60
2021/04/03 11:12:14;;;;;;;1.03;0.93;;;10.40;1.00;;;;;;5034920;28;20580;-60
2021/04/03 11:14:43;;;;;;;3.97;1.95;;;10.60;1.00;;;;;;5033132;28;20182;-60
2021/04/03 11:17:10;;;;;;;2.92;1.45;;;10.90;1.00;;;;;;5034006;28;20184;-60
2021/04/03 11:19:36;;;;;;;3.30;1.75;;;11.10;1.00;;;;;;5035518;28;20179;-60
2021/04/03 11:22:02;;;;;;;4.57;1.57;;;10.80;1.00;;;;;;5036528;28;20248;-60
2021/04/03 11:24:28;;;;;;;2.75;2.10;;;10.80;1.00;;;;;;5036422;28;20224;-60
2021/04/03 11:26:53;;;;;;;2.20;1.37;;;10.80;1.00;;;;;;5037615;28;20213;-62
2021/04/03 11:29:19;;;;;;;2.30;1.93;;;10.80;1.00;;;;;;5036198;28;20222;-62
2021/04/03 11:31:45;;;;;;;2.73;1.73;;;10.40;1.00;;;;;;5036772;28;20328;-63
2021/04/03 11:34:10;;;;;;;2.50;1.63;;;10.50;1.00;;;;;;5036168;28;20228;-63
2021/04/03 11:36:36;;;;;;;3.53;2.13;;;10.80;1.00;;;;;;5036953;28;20224;-62
2021/04/03 11:39:03;;;;;;;3.40;2.27;;;10.80;1.00;;;;;;5040640;28;20209;-62
2021/04/03 11:41:28;;;;;;;4.45;2.15;;;10.90;1.00;;;;;;5041136;28;20192;-63
2021/04/03 11:43:56;;;;;;;2.03;1.60;;;11.20;1.00;;;;;;5040849;28;20205;-60
2021/04/03 11:46:21;;;;;;;4.53;2.10;;;11.30;1.00;;;;;;5041644;28;20245;-62
2021/04/03 11:48:47;;;;;;;2.80;1.73;;;11.30;1.00;;;;;;5040579;28;20206;-63
2021/04/03 11:51:12;;;;;;;2.93;1.73;;;11.60;1.00;;;;;;5040880;28;20688;-63
2021/04/03 11:53:38;;;;;;;2.27;1.83;;;11.70;1.00;;;;;;5040365;28;20194;-63
2021/04/03 11:56:04;;;;;;;2.38;1.50;;;11.60;1.00;;;;;;5040750;28;20177;-63
2021/04/03 11:58:30;;;;;;;2.80;1.80;;;11.30;1.00;;;;;;5040788;28;20182;-62
2021/04/03 12:00:55;;;;;;;3.37;1.90;;;11.40;1.00;;;;;;5040616;28;20185;-62
2021/04/03 12:03:21;;;;;;;2.53;2.10;;;11.00;1.00;;;;;;5040677;28;20178;-62
2021/04/03 12:05:46;;;;;;;3.97;1.97;;;10.90;1.00;;;;;;5042314;28;20186;-62
2021/04/03 12:08:12;;;;;;;1.67;1.57;;;11.10;1.00;;;;;;5044052;28;20217;-62
2021/04/03 12:10:38;;;;;;;3.10;1.90;;;11.20;1.00;;;;;;5043877;28;20178;-62
2021/04/03 12:13:04;;;;;;;2.37;1.80;;;11.70;1.00;;;;;;5040296;28;20178;-62
2021/04/03 12:15:29;;;;;;;2.10;1.77;;;11.50;1.00;;;;;;5037387;28;20190;-62
2021/04/03 12:17:55;;;;;;;2.40;1.90;;;10.90;1.00;;;;;;5035948;28;20435;-62
2021/04/03 12:20:21;;;;;;;4.87;2.13;;;11.20;1.00;;;;;;5034006;28;20209;-62
2021/04/03 12:22:47;;;;;;;2.97;2.10;;;11.20;1.00;;;;;;5033359;28;20178;-62
2021/04/03 12:25:13;;;;;;;5.57;3.30;;;11.30;1.00;;;;;;5032978;28;20185;-62
2021/04/03 12:27:39;;;;;;;3.47;2.00;;;11.70;1.00;;;;;;5035781;28;20197;-62
2021/04/03 12:30:06;;;;;;;2.73;2.10;;;12.10;1.00;;;;;;5036294;28;20186;-62
2021/04/03 12:32:32;;;;;;;3.60;2.20;;;12.10;1.00;;;;;;5037428;28;20189;-62
2021/04/03 12:34:58;;;;;;;4.07;2.40;;;11.80;1.00;;;;;;5037344;28;20185;-62
2021/04/03 12:37:24;;;;;;;2.97;2.40;;;11.90;1.00;;;;;;5037469;28;20195;-62
2021/04/03 12:39:49;;;;;;;2.63;1.60;;;12.10;1.00;;;;;;5038017;28;20555;-59
2021/04/03 12:42:15;;;;;;;5.20;1.90;;;12.00;1.00;;;;;;5038963;28;20642;-62
2021/04/03 12:44:41;;;;;;;3.67;1.90;;;11.90;1.00;;;;;;5037592;28;20178;-62
2021/04/03 12:47:07;;;;;;;4.10;2.13;;;12.20;1.00;;;;;;5039475;28;20183;-62
2021/04/03 12:49:32;;;;;;;1.73;1.37;;;12.30;1.00;;;;;;5038611;28;20217;-64
2021/04/03 12:51:58;;;;;;;2.77;1.97;;;12.10;1.00;;;;;;5038050;28;20523;-62
2021/04/03 12:54:24;;;;;;;3.10;1.70;;;12.00;1.00;;;;;;5036198;28;20513;-62
2021/04/03 12:56:50;;;;;;;2.20;1.70;;;12.10;1.00;;;;;;5036892;28;20248;-62
2021/04/03 12:59:16;;;;;;;3.77;1.73;;;11.90;1.00;;;;;;5035702;28;20193;-62